Time;durP1;ratioP1;P1;durP2;ratioP2;P2;SDS_P1;SDS_P2;PMS_P1;PMS_P2;Temp;Humidity;BMP_temperature;BMP_pressure;BME280_temperature;BME280_humidity;BME280_pressure;Samples;Min_cycle;Max_cycle;Signal;HPM_P1;HPM_P2
2021/09/28 00:01:05;;;;;;;5.37;2.00;;;;;;;15.56;85.29;101994.03;4974257;28;20191;-81
2021/09/28 00:03:30;;;;;;;7.33;2.33;;;;;;;15.47;85.66;101996.44;4974055;28;20244;-80
2021/09/28 00:05:55;;;;;;;5.93;2.23;;;;;;;15.42;86.49;101998.94;5003103;28;20179;-80
2021/09/28 00:08:21;;;;;;;8.00;2.37;;;;;;;15.40;86.27;102005.78;5004526;28;20191;-78
2021/09/28 00:10:46;;;;;;;6.27;2.80;;;;;;;15.34;86.43;102007.38;5011979;28;20230;-82
2021/09/28 00:13:12;;;;;;;6.60;2.40;;;;;;;15.36;86.69;102010.84;4992696;28;20568;-79
2021/09/28 00:15:38;;;;;;;5.67;2.33;;;;;;;15.38;86.50;102014.34;4993166;28;20211;-80
2021/09/28 00:18:03;;;;;;;3.53;2.30;;;;;;;15.34;85.99;102015.97;4994696;28;20291;-78
2021/09/28 00:20:31;;;;;;;5.30;2.27;;;;;;;15.36;86.43;102006.56;4994960;28;20618;-81
2021/09/28 00:22:56;;;;;;;7.97;2.50;;;;;;;15.37;86.74;102008.31;4993837;28;20247;-80
2021/09/28 00:25:22;;;;;;;8.47;2.90;;;;;;;15.38;86.54;102004.88;4993970;28;20224;-78
2021/09/28 00:27:48;;;;;;;8.33;3.17;;;;;;;15.36;86.46;102006.56;4993134;28;20668;-81
2021/09/28 00:30:14;;;;;;;4.53;2.97;;;;;;;15.37;85.99;102017.78;4994400;28;20842;-79
2021/09/28 00:32:40;;;;;;;5.77;3.07;;;;;;;15.30;86.53;102023.63;4992384;28;20200;-79
2021/09/28 00:35:06;;;;;;;9.33;3.30;;;;;;;15.28;86.53;102022.72;4992097;28;20196;-80
2021/09/28 00:37:31;;;;;;;6.63;3.27;;;;;;;15.26;86.44;102021.81;4976050;28;20231;-83
2021/09/28 00:39:56;;;;;;;7.63;3.73;;;;;;;15.22;86.17;102020.00;4979065;28;20185;-79
2021/09/28 00:42:22;;;;;;;7.77;3.30;;;;;;;15.21;85.95;102023.44;4991747;28;20243;-80
2021/09/28 00:44:48;;;;;;;4.73;3.20;;;;;;;15.17;86.08;102026.78;4972445;28;20189;-80
2021/09/28 00:47:15;;;;;;;7.33;3.67;;;;;;;15.10;86.29;102038.69;4971848;28;20173;-77
2021/09/28 00:49:42;;;;;;;9.17;4.37;;;;;;;15.06;86.65;102043.78;4972844;28;20682;-79
2021/09/28 00:52:09;;;;;;;9.47;4.07;;;;;;;14.97;86.42;102052.19;4972051;28;20215;-78
2021/09/28 00:54:37;;;;;;;11.50;4.07;;;;;;;14.97;86.32;102047.03;4973925;28;20191;-79
2021/09/28 00:57:07;;;;;;;9.47;4.13;;;;;;;14.96;86.14;102047.00;4972254;28;20188;-80
2021/09/28 00:59:38;;;;;;;8.20;4.90;;;;;;;14.93;86.68;102057.25;4973764;28;20188;-79
2021/09/28 01:02:08;;;;;;;6.80;3.80;;;;;;;14.91;86.71;102061.53;4972183;28;20212;-79
2021/09/28 01:04:33;;;;;;;8.47;4.33;;;;;;;14.85;86.38;102066.53;4972174;28;20193;-78
2021/09/28 01:06:59;;;;;;;8.30;4.27;;;;;;;14.83;86.45;102063.06;4988116;28;20184;-78
2021/09/28 01:09:25;;;;;;;11.37;4.80;;;;;;;14.78;86.99;102067.25;5004740;28;20194;-78
2021/09/28 01:11:51;;;;;;;9.17;5.07;;;;;;;14.70;86.74;102066.19;4998983;28;20227;-79
2021/09/28 01:14:17;;;;;;;12.50;4.30;;;;;;;14.71;87.21;102073.97;5008027;28;20184;-80
2021/09/28 01:16:42;;;;;;;14.70;4.67;;;;;;;14.73;86.71;102067.13;4991693;28;20191;-78
2021/09/28 01:19:07;;;;;;;9.73;4.50;;;;;;;14.67;87.08;102061.84;4991989;28;20216;-78
2021/09/28 01:21:33;;;;;;;12.43;4.80;;;;;;;14.65;86.78;102072.97;4992181;28;20262;-79
2021/09/28 01:23:58;;;;;;;11.20;4.53;;;;;;;14.62;86.94;102078.03;5008659;28;20184;-80
2021/09/28 01:26:24;;;;;;;12.77;4.90;;;;;;;14.56;87.10;102068.47;4991892;28;20679;-79
2021/09/28 01:28:52;;;;;;;6.60;4.40;;;;;;;14.54;87.34;102075.28;4994914;28;20222;-78
2021/09/28 01:31:18;;;;;;;11.93;4.63;;;;;;;14.53;87.09;102075.25;5002656;28;20199;-79
2021/09/28 01:33:43;;;;;;;12.27;4.97;;;;;;;14.51;87.40;102079.50;5003247;28;20572;-80
2021/09/28 01:36:09;;;;;;;9.17;4.87;;;;;;;14.49;86.80;102079.47;4996269;28;20199;-81
2021/09/28 01:38:34;;;;;;;11.10;4.70;;;;;;;14.46;86.65;102092.28;4977382;28;20889;-79
2021/09/28 01:41:00;;;;;;;7.90;4.73;;;;;;;14.45;87.22;102089.69;5016865;28;20190;-79
2021/09/28 01:43:25;;;;;;;12.73;4.90;;;;;;;14.44;87.61;102088.81;4967642;28;20216;-83
2021/09/28 01:45:56;;;;;;;8.23;4.50;;;;;;;14.41;86.54;102095.59;4982482;28;20207;-80
2021/09/28 01:48:26;;;;;;;11.77;5.03;;;;;;;14.35;87.33;102092.84;5005172;28;20202;-80
2021/09/28 01:50:52;;;;;;;12.37;5.47;;;;;;;14.34;87.80;102088.53;5001516;28;20188;-80
2021/09/28 01:53:17;;;;;;;10.57;5.23;;;;;;;14.34;87.02;102098.84;4984027;28;20648;-78
2021/09/28 01:55:42;;;;;;;10.47;5.47;;;;;;;14.30;86.98;102097.91;4998231;28;20192;-78
2021/09/28 01:58:08;;;;;;;13.13;5.57;;;;;;;14.26;87.10;102101.25;4987171;28;20222;-81
2021/09/28 02:00:33;;;;;;;9.87;4.80;;;;;;;14.23;86.73;102103.72;5002684;28;20273;-79
2021/09/28 02:03:00;;;;;;;11.00;5.23;;;;;;;14.19;86.94;102099.34;5006825;28;20243;-79
2021/09/28 02:05:26;;;;;;;12.27;5.73;;;;;;;14.15;87.09;102105.25;4973732;28;20189;-78
2021/09/28 02:07:51;;;;;;;9.57;5.33;;;;;;;14.12;86.89;102107.72;4971895;28;20195;-80
2021/09/28 02:10:17;;;;;;;16.00;5.93;;;;;;;14.08;87.77;102103.31;4991548;28;20192;-80
2021/09/28 02:12:42;;;;;;;11.80;5.63;;;;;;;14.08;87.96;102108.47;5003197;28;20215;-81
2021/09/28 02:15:08;;;;;;;10.90;5.60;;;;;;;14.06;87.06;102115.31;4996955;28;20226;-81
2021/09/28 02:17:33;;;;;;;10.73;5.50;;;;;;;14.03;86.72;102111.75;4990169;28;20215;-82
2021/09/28 02:19:58;;;;;;;11.03;5.30;;;;;;;14.01;87.40;102110.88;5026891;28;20271;-81
2021/09/28 02:22:24;;;;;;;10.10;5.83;;;;;;;13.93;87.33;102110.66;5008338;28;20218;-79
2021/09/28 02:24:49;;;;;;;12.63;5.63;;;;;;;13.90;87.54;102113.16;4994287;28;20189;-78
2021/09/28 02:27:16;;;;;;;9.50;5.03;;;;;;;13.85;87.17;102114.75;4997009;28;20188;-78
2021/09/28 02:29:41;;;;;;;11.60;5.50;;;;;;;13.87;87.19;102120.81;5011047;28;20187;-78
2021/09/28 02:32:07;;;;;;;9.37;5.90;;;;;;;13.84;87.01;102125.00;5010019;28;20213;-80
2021/09/28 02:34:35;;;;;;;12.20;5.30;;;;;;;13.75;86.17;102124.75;5042343;28;20548;-78
2021/09/28 02:37:04;;;;;;;9.40;4.70;;;;;;;13.71;85.95;102128.94;5012621;28;20192;-79
2021/09/28 02:39:29;;;;;;;7.57;4.20;;;;;;;13.64;85.63;102127.06;4996996;28;20557;-79
2021/09/28 02:41:55;;;;;;;9.60;4.53;;;;;;;13.59;84.58;102127.75;5002474;28;20207;-81
2021/09/28 02:44:20;;;;;;;9.13;4.87;;;;;;;13.54;84.87;102135.31;5021094;28;20290;-80
2021/09/28 02:46:46;;;;;;;11.00;5.30;;;;;;;13.48;85.10;102136.88;5003878;28;20273;-80
2021/09/28 02:49:11;;;;;;;8.30;4.90;;;;;;;13.42;84.67;102135.00;5004517;28;20175;-82
2021/09/28 02:51:36;;;;;;;8.47;4.63;;;;;;;13.42;84.90;102140.13;4999010;28;20230;-77
2021/09/28 02:54:02;;;;;;;9.63;4.93;;;;;;;13.30;84.21;102134.63;5013218;28;20681;-80
2021/09/28 02:56:27;;;;;;;7.20;4.60;;;;;;;13.30;84.25;102137.19;5008526;28;20303;-79
2021/09/28 02:58:52;;;;;;;12.53;4.97;;;;;;;13.24;84.85;102136.16;4998568;28;20323;-79
2021/09/28 03:01:18;;;;;;;9.23;6.07;;;;;;;13.25;85.95;102137.91;4992362;28;20228;-80
2021/09/28 03:03:43;;;;;;;12.50;5.50;;;;;;;13.23;86.44;102144.69;4964746;28;20228;-79
2021/09/28 03:06:08;;;;;;;9.80;5.53;;;;;;;13.18;85.79;102146.25;5009811;28;20211;-80
2021/09/28 03:08:34;;;;;;;12.07;5.90;;;;;;;13.10;85.74;102147.72;4989184;28;20185;-77
2021/09/28 03:11:00;;;;;;;9.77;4.77;;;;;;;13.02;85.55;102154.38;4991407;28;20251;-80
2021/09/28 03:13:26;;;;;;;11.50;5.00;;;;;;;13.03;85.78;102150.97;4976085;28;20204;-79
2021/09/28 03:15:52;;;;;;;10.23;4.83;;;;;;;13.01;85.82;102156.03;4960151;28;20196;-80
2021/09/28 03:18:17;;;;;;;7.83;5.00;;;;;;;13.01;85.15;102143.19;5002249;28;20755;-81
2021/09/28 03:20:43;;;;;;;9.73;4.70;;;;;;;12.86;85.18;102155.56;5016535;28;20190;-81
2021/09/28 03:23:08;;;;;;;7.70;5.00;;;;;;;12.90;86.15;102152.25;5002082;28;20346;-79
2021/09/28 03:25:35;;;;;;;8.90;4.90;;;;;;;12.79;86.05;102157.06;4997449;28;21142;-80
2021/09/28 03:28:02;;;;;;;6.90;4.97;;;;;;;12.81;85.55;102160.53;4998033;28;20671;-80
2021/09/28 03:30:28;;;;;;;12.63;6.63;;;;;;;12.79;86.37;102158.75;4979204;28;20668;-83
2021/09/28 03:32:54;;;;;;;16.10;8.70;;;;;;;12.90;88.21;102157.41;4996827;28;20224;-81
2021/09/28 03:35:19;;;;;;;16.93;8.23;;;;;;;12.93;89.24;102154.91;5023314;28;20642;-78
2021/09/28 03:37:49;;;;;;;14.97;7.27;;;;;;;12.94;88.72;102164.34;5013007;28;20203;-80
2021/09/28 03:40:15;;;;;;;14.23;7.70;;;;;;;12.90;88.52;102157.41;4993608;28;20207;-81
2021/09/28 03:42:40;;;;;;;10.57;6.90;;;;;;;12.83;87.87;102153.75;5006141;28;20207;-79
2021/09/28 03:45:06;;;;;;;12.73;8.17;;;;;;;12.89;88.83;102163.34;4990395;28;20198;-79
2021/09/28 03:47:32;;;;;;;12.43;7.23;;;;;;;12.83;88.72;102169.19;4997846;28;20678;-79
2021/09/28 03:49:57;;;;;;;11.57;6.83;;;;;;;12.80;87.85;102175.91;5006587;28;20183;-80
2021/09/28 03:52:23;;;;;;;15.00;8.80;;;;;;;12.89;88.66;102181.34;5010333;28;20217;-78
2021/09/28 03:54:48;;;;;;;15.07;8.17;;;;;;;12.86;89.24;102176.13;5005090;28;20191;-79
2021/09/28 03:57:14;;;;;;;12.90;8.97;;;;;;;12.89;89.70;102181.34;5014738;28;20222;-80
2021/09/28 03:59:39;;;;;;;14.23;7.80;;;;;;;12.93;89.68;102179.75;5003049;28;20191;-79
2021/09/28 04:02:04;;;;;;;19.67;8.77;;;;;;;12.93;89.44;102184.06;5009401;28;20258;-79
2021/09/28 04:04:30;;;;;;;16.00;8.50;;;;;;;12.91;89.59;102193.41;5001720;28;20187;-79
2021/09/28 04:06:55;;;;;;;18.90;8.47;;;;;;;12.95;89.47;102189.25;5013934;28;20794;-79
2021/09/28 04:09:20;;;;;;;15.23;8.17;;;;;;;12.94;89.54;102192.63;4999525;28;20612;-79
2021/09/28 04:11:46;;;;;;;14.60;8.97;;;;;;;12.90;89.47;102195.97;5001714;28;20200;-78
2021/09/28 04:14:14;;;;;;;15.97;9.13;;;;;;;12.88;89.69;102194.16;4977372;28;20187;-78
2021/09/28 04:16:39;;;;;;;13.67;7.93;;;;;;;12.90;89.64;102198.53;5021941;28;20215;-79
2021/09/28 04:19:05;;;;;;;14.37;8.70;;;;;;;12.89;89.26;102204.47;4999427;28;20215;-81
2021/09/28 04:21:30;;;;;;;12.77;8.57;;;;;;;12.88;89.44;102208.75;5029185;28;20191;-78
2021/09/28 04:23:55;;;;;;;16.10;8.90;;;;;;;12.85;89.76;102211.22;4992601;28;20690;-79
2021/09/28 04:26:21;;;;;;;17.63;9.23;;;;;;;12.86;89.83;102207.81;4989974;28;20267;-80
2021/09/28 04:28:47;;;;;;;18.20;9.17;;;;;;;12.83;89.37;102209.44;5006284;28;20209;-78
2021/09/28 04:31:15;;;;;;;15.33;9.50;;;;;;;12.83;89.70;102217.13;4991804;28;20183;-77
2021/09/28 04:33:40;;;;;;;19.20;9.27;;;;;;;12.80;89.44;102223.06;4975606;28;20247;-78
2021/09/28 04:36:06;;;;;;;14.40;8.40;;;;;;;12.76;89.71;102230.63;4974040;28;20600;-81
2021/09/28 04:38:31;;;;;;;11.50;7.67;;;;;;;12.67;88.57;102236.31;4980870;28;20211;-79
2021/09/28 04:40:56;;;;;;;18.73;8.10;;;;;;;12.73;89.00;102240.81;5005310;28;20183;-80
2021/09/28 04:43:22;;;;;;;13.30;7.63;;;;;;;12.65;88.46;102248.25;4996560;28;20295;-79
2021/09/28 04:45:47;;;;;;;11.97;7.80;;;;;;;12.62;88.21;102240.44;4992366;28;20209;-79
2021/09/28 04:48:12;;;;;;;9.90;7.30;;;;;;;12.55;87.52;102247.91;4990691;28;20188;-81
2021/09/28 04:50:38;;;;;;;13.87;7.27;;;;;;;12.48;87.78;102244.25;5013643;28;20187;-81
2021/09/28 04:53:04;;;;;;;15.90;8.60;;;;;;;12.49;88.00;102252.84;5022899;28;20212;-78
2021/09/28 04:55:29;;;;;;;12.53;7.17;;;;;;;12.43;87.41;102258.63;4994480;28;20245;-81
2021/09/28 04:57:54;;;;;;;16.10;8.00;;;;;;;12.38;87.23;102262.75;5008980;28;20732;-76
2021/09/28 05:00:20;;;;;;;13.80;8.17;;;;;;;12.38;87.68;102267.00;5010016;28;20195;-78
2021/09/28 05:02:45;;;;;;;10.43;7.83;;;;;;;12.35;87.57;102274.59;5010874;28;20736;-79
2021/09/28 05:05:10;;;;;;;14.33;8.27;;;;;;;12.34;86.98;102275.41;4989637;28;20191;-80
2021/09/28 05:07:36;;;;;;;14.03;8.40;;;;;;;12.33;86.95;102277.13;5001906;28;20179;-79
2021/09/28 05:10:03;;;;;;;14.10;8.37;;;;;;;12.31;87.43;102277.88;4988494;28;20244;-79
2021/09/28 05:12:29;;;;;;;13.63;8.03;;;;;;;12.20;86.22;102280.06;4997135;28;20212;-81
2021/09/28 05:14:56;;;;;;;9.43;7.33;;;;;;;12.19;85.65;102285.16;4989734;28;20248;-80
2021/09/28 05:17:22;;;;;;;16.83;8.33;;;;;;;12.09;86.22;102286.53;4989390;28;20275;-79
2021/09/28 05:19:47;;;;;;;12.23;7.53;;;;;;;12.07;85.78;102293.28;5005587;28;20196;-80
2021/09/28 05:22:12;;;;;;;12.40;8.67;;;;;;;12.08;86.91;102286.47;4989962;28;20208;-81
2021/09/28 05:24:38;;;;;;;10.67;7.40;;;;;;;12.07;86.55;102290.72;5012063;28;20202;-78
2021/09/28 05:27:04;;;;;;;9.17;6.90;;;;;;;12.07;86.04;102297.56;5005756;28;20770;-79
2021/09/28 05:29:29;;;;;;;8.90;6.33;;;;;;;12.00;86.63;102303.28;4989242;28;20207;-80
2021/09/28 05:31:54;;;;;;;9.13;6.27;;;;;;;11.93;86.51;102301.31;5003267;28;20241;-79
2021/09/28 05:34:21;;;;;;;8.23;5.87;;;;;;;11.95;86.16;102308.25;5003930;28;20205;-80
2021/09/28 05:36:47;;;;;;;8.57;6.50;;;;;;;11.90;85.89;102308.88;5013096;28;20591;-78
2021/09/28 05:39:12;;;;;;;11.27;7.03;;;;;;;11.99;86.58;102314.38;4970185;28;20197;-78
2021/09/28 05:41:38;;;;;;;11.57;7.30;;;;;;;12.00;87.95;102309.28;4978998;28;20211;-79
2021/09/28 05:44:03;;;;;;;12.63;6.63;;;;;;;12.04;87.57;102325.69;4977924;28;20188;-78
2021/09/28 05:46:29;;;;;;;10.77;7.07;;;;;;;11.97;86.46;102319.44;4972983;28;20196;-79
2021/09/28 05:48:54;;;;;;;8.97;6.63;;;;;;;11.98;86.98;102315.19;5016518;28;20326;-80
2021/09/28 05:51:21;;;;;;;10.13;6.53;;;;;;;11.97;87.77;102319.44;5003977;28;20192;-79
2021/09/28 05:53:46;;;;;;;6.47;5.23;;;;;;;12.06;87.85;102327.47;5004650;28;20538;-79
2021/09/28 05:56:15;;;;;;;8.47;6.33;;;;;;;12.08;87.48;102330.09;5002211;28;20295;-78
2021/09/28 05:58:41;;;;;;;7.80;6.37;;;;;;;12.05;87.42;102332.56;5026433;28;20214;-79
2021/09/28 06:01:07;;;;;;;8.67;6.23;;;;;;;12.07;87.78;102333.50;5012125;28;20581;-80
2021/09/28 06:03:33;;;;;;;13.10;7.37;;;;;;;12.07;87.83;102334.34;5009112;28;20208;-78
2021/09/28 06:06:02;;;;;;;7.77;5.37;;;;;;;12.08;86.97;102346.38;4994469;28;20631;-79
2021/09/28 06:08:28;;;;;;;10.83;5.90;;;;;;;12.13;87.26;102344.84;4994879;28;20184;-79
2021/09/28 06:10:54;;;;;;;9.90;6.33;;;;;;;12.17;87.00;102344.16;4995905;28;20584;-81
2021/09/28 06:13:19;;;;;;;10.00;6.60;;;;;;;12.32;87.08;102343.84;4994698;28;20243;-80
2021/09/28 06:15:45;;;;;;;8.53;6.70;;;;;;;12.44;86.30;102345.16;4990732;28;20601;-79
2021/09/28 06:18:10;;;;;;;11.10;6.53;;;;;;;12.53;86.12;102348.06;4992586;28;20216;-80
2021/09/28 06:20:35;;;;;;;11.30;5.87;;;;;;;12.56;86.21;102353.31;4977152;28;20193;-79
2021/09/28 06:23:01;;;;;;;12.70;5.70;;;;;;;12.71;86.25;102356.41;5008587;28;20219;-80
2021/09/28 06:25:26;;;;;;;12.83;5.73;;;;;;;12.75;86.73;102358.28;5008211;28;20224;-79
2021/09/28 06:27:51;;;;;;;11.07;5.93;;;;;;;12.92;86.87;102353.72;4975686;28;20192;-79
2021/09/28 06:30:17;;;;;;;9.07;5.33;;;;;;;12.99;86.85;102360.84;4977323;28;20665;-79
2021/09/28 06:32:42;;;;;;;10.80;6.13;;;;;;;12.95;87.54;102359.81;5008713;28;20219;-78
2021/09/28 06:35:07;;;;;;;6.67;5.00;;;;;;;13.12;86.72;102354.41;5008515;28;20274;-78
2021/09/28 06:37:33;;;;;;;10.47;5.60;;;;;;;13.15;86.45;102364.78;4975401;28;20220;-78
2021/09/28 06:39:58;;;;;;;9.60;5.70;;;;;;;13.26;86.87;102364.31;4990779;28;20189;-79
2021/09/28 06:42:24;;;;;;;8.10;5.00;;;;;;;13.41;86.13;102372.56;4975282;28;20236;-79
2021/09/28 06:44:51;;;;;;;9.47;5.07;;;;;;;13.42;85.44;102369.16;4992686;28;20192;-79
2021/09/28 06:47:16;;;;;;;9.83;5.03;;;;;;;13.44;86.17;102377.78;4980220;28;20195;-78
2021/09/28 06:49:41;;;;;;;9.37;4.57;;;;;;;13.49;85.80;102375.38;4980624;28;20189;-78
2021/09/28 06:52:07;;;;;;;9.63;4.90;;;;;;;13.87;84.96;102368.03;4990556;28;20221;-79
2021/09/28 06:54:32;;;;;;;12.50;5.53;;;;;;;14.19;83.97;102374.13;5041388;28;20195;-79
2021/09/28 06:56:58;;;;;;;9.67;4.97;;;;;;;14.36;83.12;102370.38;5018373;28;20187;-81
2021/09/28 06:59:23;;;;;;;11.70;4.93;;;;;;;14.53;82.54;102371.72;5017587;28;20219;-79
2021/09/28 07:01:49;;;;;;;9.03;4.90;;;;;;;14.65;81.39;102372.06;5018272;28;20580;-80
2021/09/28 07:04:14;;;;;;;8.57;4.30;;;;;;;14.99;80.97;102372.09;5017383;28;20187;-79
2021/09/28 07:06:39;;;;;;;11.73;4.67;;;;;;;15.26;79.67;102373.69;5016413;28;20191;-79
2021/09/28 07:09:05;;;;;;;11.47;4.50;;;;;;;15.28;78.91;102366.00;4985884;28;20193;-79
2021/09/28 07:11:30;;;;;;;8.17;4.43;;;;;;;15.18;79.06;102376.91;4977655;28;20225;-79
2021/09/28 07:13:56;;;;;;;5.87;3.90;;;;;;;15.53;78.56;102370.94;4979179;28;20220;-79
2021/09/28 07:16:22;;;;;;;9.07;4.43;;;;;;;15.82;77.08;102380.22;4977054;28;20712;-79
2021/09/28 07:18:47;;;;;;;5.73;3.80;;;;;;;15.93;75.94;102374.47;5009998;28;20588;-80
2021/09/28 07:21:13;;;;;;;7.47;4.30;;;;;;;16.22;75.96;102373.41;4993805;28;20228;-80
2021/09/28 07:23:39;;;;;;;6.33;3.40;;;;;;;16.07;74.51;102378.22;4993913;28;20203;-79
2021/09/28 07:26:07;;;;;;;7.40;4.07;;;;;;;15.88;75.42;102388.16;5004030;28;20188;-79
2021/09/28 07:28:33;;;;;;;7.60;3.73;;;;;;;16.24;75.08;102384.63;4976409;28;20204;-81
2021/09/28 07:30:59;;;;;;;7.00;3.43;;;;;;;16.54;74.40;102384.44;5008627;28;20261;-80
2021/09/28 07:33:24;;;;;;;5.37;3.27;;;;;;;16.77;72.56;102380.56;5008058;28;20271;-79
2021/09/28 07:35:50;;;;;;;9.07;3.83;;;;;;;16.69;72.27;102387.31;4976171;28;20184;-80
2021/09/28 07:38:17;;;;;;;7.97;3.43;;;;;;;16.92;72.17;102386.91;5009675;28;20301;-79
2021/09/28 07:40:45;;;;;;;7.47;3.40;;;;;;;17.23;72.38;102386.56;4976270;28;20208;-80
2021/09/28 07:43:11;;;;;;;5.73;3.20;;;;;;;17.31;71.65;102386.75;5026664;28;20224;-80
2021/09/28 07:45:40;;;;;;;7.27;3.57;;;;;;;17.57;70.18;102383.75;5013397;28;20259;-80
2021/09/28 07:48:06;;;;;;;5.93;3.30;;;;;;;17.44;69.32;102386.09;4999221;28;20184;-80
2021/09/28 07:50:32;;;;;;;7.57;3.60;;;;;;;17.24;69.94;102393.53;4983235;28;20203;-79
2021/09/28 07:52:58;;;;;;;5.37;3.27;;;;;;;17.14;70.49;102385.56;5006687;28;20214;-79
2021/09/28 07:55:24;;;;;;;7.03;3.43;;;;;;;17.26;70.42;102380.59;5010724;28;20330;-79
2021/09/28 07:57:50;;;;;;;7.67;3.40;;;;;;;17.74;69.10;102386.59;5017196;28;21032;-78
2021/09/28 08:00:16;;;;;;;7.90;3.60;;;;;;;17.97;68.86;102383.47;4983340;28;20189;-78
2021/09/28 08:02:42;;;;;;;5.47;3.50;;;;;;;18.13;67.37;102384.56;4980919;28;20201;-79
2021/09/28 08:05:09;;;;;;;5.77;3.17;;;;;;;18.38;66.63;102384.06;4994661;28;20669;-80
2021/09/28 08:07:34;;;;;;;7.13;3.50;;;;;;;18.58;66.69;102380.84;4978932;28;20258;-78
2021/09/28 08:10:00;;;;;;;5.63;3.10;;;;;;;18.58;65.15;102385.16;4979618;28;20188;-80
2021/09/28 08:12:26;;;;;;;7.03;2.83;;;;;;;18.77;65.46;102381.91;4994425;28;20208;-79
2021/09/28 08:14:51;;;;;;;4.57;2.47;;;;;;;18.63;63.81;102383.50;4994869;28;20186;-78
2021/09/28 08:17:17;;;;;;;6.37;3.00;;;;;;;19.02;63.90;102379.59;5023867;28;20595;-79
2021/09/28 08:19:43;;;;;;;6.57;3.10;;;;;;;18.91;64.74;102385.53;5006899;28;20330;-80
2021/09/28 08:22:11;;;;;;;5.37;2.90;;;;;;;18.86;64.34;102382.91;4996133;28;20219;-80
2021/09/28 08:24:42;;;;;;;5.27;3.27;;;;;;;19.30;63.07;102380.75;4999785;28;20196;-79
2021/09/28 08:29:57;;;;;;;6.80;2.80;;;;;;;19.55;61.79;102377.47;4980361;28;20201;-80
2021/09/28 08:32:23;;;;;;;4.40;3.20;;;;;;;19.31;61.60;102380.78;4980494;28;20333;-80
2021/09/28 08:34:49;;;;;;;9.27;3.40;;;;;;;19.50;62.34;102379.16;4979482;28;20254;-78
2021/09/28 08:37:14;;;;;;;5.13;2.37;;;;;;;19.29;61.66;102376.38;4992089;28;20192;-78
2021/09/28 08:39:40;;;;;;;3.43;2.27;;;;;;;19.74;61.42;102380.22;4992712;28;20200;-78
2021/09/28 08:42:05;;;;;;;6.60;2.90;;;;;;;19.81;61.70;102381.97;4996168;28;20701;-79
2021/09/28 08:44:31;;;;;;;7.37;2.73;;;;;;;19.86;61.17;102384.63;4992208;28;20195;-78
2021/09/28 08:46:57;;;;;;;6.13;3.30;;;;;;;19.95;61.76;102385.53;5009097;28;20780;-78
2021/09/28 08:49:22;;;;;;;6.30;2.70;;;;;;;20.37;59.82;102391.03;4992334;28;20215;-78
2021/09/28 08:51:49;;;;;;;6.77;2.90;;;;;;;20.43;58.97;102383.22;4988576;28;20250;-79
2021/09/28 08:54:16;;;;;;;4.97;2.40;;;;;;;20.60;58.25;102386.75;5000022;28;20230;-78
2021/09/28 08:56:41;;;;;;;9.27;2.97;;;;;;;20.98;56.73;102384.28;4982643;28;20192;-78
2021/09/28 08:59:07;;;;;;;7.87;2.90;;;;;;;20.94;57.85;102387.72;5004772;28;20700;-80
2021/09/28 09:01:35;;;;;;;7.23;2.60;;;;;;;21.21;55.97;102382.56;4997074;28;20187;-79
2021/09/28 09:04:15;;;;;;;5.17;2.30;;;;;;;21.38;55.59;102378.22;4999848;28;20248;-78
2021/09/28 09:06:44;;;;;;;7.07;2.60;;;;;;;21.72;55.19;102380.84;4998095;28;20195;-80
2021/09/28 09:09:10;;;;;;;4.33;2.10;;;;;;;22.77;52.71;102373.50;4996963;28;20203;-77
2021/09/28 09:11:39;;;;;;;5.05;2.20;;;;;;;26.47;43.28;102362.34;4981159;28;20220;-79
2021/09/28 09:14:20;;;;;;;4.13;2.10;;;;;;;31.81;33.05;102349.91;4979459;28;20207;-78
2021/09/28 09:16:48;;;;;;;9.02;2.50;;;;;;;33.79;29.03;102334.81;5028464;28;20206;-81
2021/09/28 09:19:22;;;;;;;5.05;2.00;;;;;;;34.84;28.02;102338.72;4996896;28;20210;-80
2021/09/28 09:21:55;;;;;;;3.42;1.80;;;;;;;36.12;26.57;102339.78;4994553;28;20220;-80
2021/09/28 09:24:49;;;;;;;2.78;1.85;;;;;;;36.58;25.98;102342.09;4946600;28;20275;-81
2021/09/28 09:27:17;;;;;;;2.45;1.60;;;;;;;35.23;27.06;102349.72;4979235;28;20684;-80
2021/09/28 09:29:42;;;;;;;4.45;2.28;;;;;;;35.78;25.96;102345.50;4997447;28;20196;-80
2021/09/28 09:32:10;;;;;;;3.42;1.90;;;;;;;36.66;25.63;102347.81;4976497;28;20296;-80
2021/09/28 09:34:36;;;;;;;4.25;1.98;;;;;;;36.26;24.04;102351.34;5009962;28;20197;-80
2021/09/28 09:37:05;;;;;;;2.20;1.60;;;;;;;37.50;23.06;102346.56;4992350;28;20261;-81
2021/09/28 09:39:53;;;;;;;5.05;2.13;;;;;;;37.43;24.07;102349.78;4992764;28;20216;-80
2021/09/28 09:42:20;;;;;;;3.65;1.85;;;;;;;37.88;23.03;102346.63;4977153;28;20223;-80
2021/09/28 09:44:46;;;;;;;4.20;1.80;;;;;;;37.55;23.12;102348.94;4976381;28;20220;-81
2021/09/28 09:47:30;;;;;;;3.90;1.90;;;;;;;38.64;23.52;102338.31;4987924;28;20223;-81
2021/09/28 09:50:11;;;;;;;2.55;1.70;;;;;;;39.93;22.02;102340.81;4995086;28;20262;-80
2021/09/28 09:52:36;;;;;;;5.35;2.05;;;;;;;38.97;22.35;102338.50;4995194;28;20246;-81
2021/09/28 09:55:25;;;;;;;3.03;1.90;;;;;;;39.65;22.02;102335.88;4979692;28;20171;-80
2021/09/28 09:57:51;;;;;;;3.53;2.13;;;;;;;39.64;20.69;102336.88;4990450;28;20311;-82
2021/09/28 10:00:16;;;;;;;5.03;1.80;;;;;;;38.79;20.43;102333.63;4996015;28;20213;-81
2021/09/28 10:02:42;;;;;;;3.85;1.80;;;;;;;39.88;19.99;102333.13;5007803;28;20222;-80
2021/09/28 10:05:08;;;;;;;3.72;2.00;;;;;;;39.97;19.91;102336.91;4998258;28;20238;-81
2021/09/28 10:07:33;;;;;;;3.10;1.90;;;;;;;40.80;19.01;102334.47;4986393;28;20326;-80
2021/09/28 10:10:00;;;;;;;2.00;1.80;;;;;;;39.48;20.20;102339.03;4996564;28;20289;-81
2021/09/28 10:12:37;;;;;;;3.65;2.17;;;;;;;40.09;19.84;102334.09;4995259;28;20211;-81
2021/09/28 10:15:14;;;;;;;3.70;1.73;;;;;;;40.46;20.58;102338.19;4990119;28;20204;-81
2021/09/28 10:17:43;;;;;;;119.82;105.45;;;;;;;40.20;19.21;102333.25;4978688;28;20641;-82
2021/09/28 10:20:29;;;;;;;31.73;27.05;;;;;;;38.79;20.92;102338.97;4979538;28;20195;-81
2021/09/28 10:22:59;;;;;;;3.05;1.90;;;;;;;38.40;19.87;102333.88;4982500;28;20198;-80
2021/09/28 10:25:36;;;;;;;3.22;1.92;;;;;;;36.97;22.75;102336.81;4983495;28;20199;-79
2021/09/28 10:28:04;;;;;;;3.88;3.42;;;;;;;40.16;20.12;102331.78;4983810;28;20222;-80
2021/09/28 10:33:00;;;;;;;6.65;3.90;;;;;;;41.49;18.12;102322.25;4986094;28;20235;-81
2021/09/28 10:35:25;;;;;;;3.45;3.00;;;;;;;40.23;19.01;102327.66;4982731;28;20180;-80
2021/09/28 10:37:59;;;;;;;6.28;4.90;;;;;;;39.25;18.36;102327.38;4996708;28;20226;-80
2021/09/28 10:40:28;;;;;;;2.95;1.77;;;;;;;36.61;20.14;102333.88;4979494;28;20638;-80
2021/09/28 10:43:05;;;;;;;2.90;1.80;;;;;;;36.91;21.48;102325.69;4996078;28;20218;-81
2021/09/28 10:45:35;;;;;;;3.08;2.63;;;;;;;38.29;20.18;102321.25;4979047;28;20222;-79
2021/09/28 10:48:07;;;;;;;10.35;9.45;;;;;;;40.86;18.61;102317.81;4979642;28;20228;-80
2021/09/28 10:50:41;;;;;;;4.75;3.70;;;;;;;41.16;17.98;102317.91;4980158;28;20203;-82
2021/09/28 10:53:26;;;;;;;27.67;24.98;;;;;;;42.16;17.31;102318.00;4980804;28;20207;-81
2021/09/28 10:55:58;;;;;;;28.77;26.13;;;;;;;41.47;17.84;102321.56;4979707;28;20196;-82
2021/09/28 10:58:25;;;;;;;38.28;34.97;;;;;;;41.49;17.04;102316.88;4980018;28;20207;-81
2021/09/28 11:00:53;;;;;;;4.20;2.60;;;;;;;39.34;18.41;102321.34;4996843;28;20185;-83
2021/09/28 11:03:41;;;;;;;70.55;63.60;;;;;;;39.90;17.44;102324.94;5011160;28;20225;-82
2021/09/28 11:06:08;;;;;;;2.92;1.60;;;;;;;40.64;17.14;102311.69;4995111;28;20195;-82
2021/09/28 11:08:37;;;;;;;22.15;20.05;;;;;;;41.80;17.02;102308.69;5002436;28;20279;-82
2021/09/28 11:11:10;;;;;;;78.43;70.82;;;;;;;41.27;16.73;102307.09;4985024;28;20183;-81
2021/09/28 11:13:38;;;;;;;27.42;24.88;;;;;;;39.28;18.35;102316.41;5001791;28;20226;-81
2021/09/28 11:16:06;;;;;;;54.15;48.85;;;;;;;41.17;17.79;102306.19;4984365;28;20183;-82
2021/09/28 11:18:32;;;;;;;141.32;128.75;;;;;;;42.02;16.78;102303.09;4984373;28;20192;-81
2021/09/28 11:21:12;;;;;;;28.67;26.00;;;;;;;41.77;17.96;102305.38;4991740;28;20223;-82
2021/09/28 11:23:39;;;;;;;29.80;26.70;;;;;;;41.83;16.71;102304.88;4988500;28;20200;-81
2021/09/28 11:26:05;;;;;;;3.53;2.70;;;;;;;41.26;17.54;102302.69;5012988;28;20194;-80